createdAt,value
2019-05-12T00:02:02.835Z,1.80
2019-05-12T00:04:35.117Z,2.20
2019-05-12T00:07:08.759Z,1.60
2019-05-12T00:09:41.143Z,1.83
2019-05-12T00:12:13.400Z,2.07
2019-05-12T00:14:45.687Z,1.60
2019-05-12T00:17:18.862Z,1.90
2019-05-12T00:19:51.402Z,2.20
2019-05-12T00:22:23.644Z,1.83
2019-05-12T00:24:58.292Z,2.23
2019-05-12T00:27:29.876Z,2.30
2019-05-12T00:30:02.148Z,2.27
2019-05-12T00:32:34.871Z,2.43
2019-05-12T00:35:07.859Z,2.20
2019-05-12T00:37:40.389Z,2.67
2019-05-12T00:40:12.604Z,2.40
2019-05-12T00:42:44.805Z,2.27
2019-05-12T00:45:18.096Z,3.00
2019-05-12T00:47:50.438Z,2.63
2019-05-12T00:50:22.697Z,2.93
2019-05-12T00:52:54.948Z,3.03
2019-05-12T00:55:28.964Z,2.93
2019-05-12T00:58:01.116Z,2.50
2019-05-12T01:00:33.327Z,2.60
2019-05-12T01:03:08.408Z,3.10
2019-05-12T01:05:39.492Z,3.30
2019-05-12T01:08:11.700Z,2.80
2019-05-12T01:10:47.800Z,3.30
2019-05-12T01:13:19.369Z,3.07
2019-05-12T01:15:51.613Z,3.30
2019-05-12T01:18:23.823Z,3.07
2019-05-12T01:20:58.267Z,2.70
2019-05-12T01:23:29.956Z,2.77
2019-05-12T01:26:02.155Z,3.93
2019-05-12T01:28:34.378Z,3.30
2019-05-12T01:31:08.579Z,3.20
2019-05-12T01:33:40.959Z,3.37
2019-05-12T01:36:15.511Z,3.00
2019-05-12T01:38:48.306Z,3.23
2019-05-12T01:41:20.639Z,2.70
2019-05-12T01:43:52.909Z,3.83
2019-05-12T01:46:25.139Z,4.30
2019-05-12T01:48:59.113Z,4.00
2019-05-12T01:51:31.398Z,4.00
2019-05-12T01:54:13.591Z,3.83
2019-05-12T01:56:38.262Z,3.87
2019-05-12T01:59:10.758Z,4.03
2019-05-12T02:01:42.962Z,4.17
2019-05-12T02:04:15.271Z,3.57
2019-05-12T02:06:48.568Z,4.13
2019-05-12T02:09:20.908Z,4.10
2019-05-12T02:11:53.143Z,3.73
2019-05-12T02:14:27.477Z,4.20
2019-05-12T02:16:59.289Z,4.10
2019-05-12T02:19:31.507Z,4.57
2019-05-12T02:22:03.755Z,4.70
2019-05-12T02:24:36.021Z,3.90
2019-05-12T02:27:08.363Z,4.47
2019-05-12T02:29:40.637Z,4.57
2019-05-12T02:32:12.883Z,4.30
2019-05-12T02:34:45.728Z,4.37
2019-05-12T02:37:18.146Z,4.47
2019-05-12T02:39:50.353Z,3.93
2019-05-12T02:42:24.382Z,3.97
2019-05-12T02:44:56.536Z,4.30
2019-05-12T02:47:28.753Z,3.73
2019-05-12T02:50:00.966Z,3.80
2019-05-12T02:52:34.893Z,3.93
2019-05-12T02:55:07.419Z,4.10
2019-05-12T02:57:45.037Z,4.03
2019-05-12T03:00:16.290Z,4.00
2019-05-12T03:02:48.510Z,4.53
2019-05-12T03:05:20.706Z,3.67
2019-05-12T03:07:55.233Z,3.87
2019-05-12T03:10:26.865Z,3.87
2019-05-12T03:12:59.084Z,4.30
2019-05-12T03:15:31.306Z,4.27
2019-05-12T03:18:06.172Z,4.10
2019-05-12T03:20:37.456Z,4.37
2019-05-12T03:23:09.714Z,3.53
2019-05-12T03:25:45.377Z,3.93
2019-05-12T03:28:16.349Z,4.07
2019-05-12T03:30:49.431Z,4.13
2019-05-12T03:33:33.602Z,3.70
2019-05-12T03:36:00.668Z,3.67
2019-05-12T03:38:31.693Z,3.77
2019-05-12T03:41:05.302Z,4.33
2019-05-12T03:43:37.938Z,4.20
2019-05-12T03:46:10.174Z,4.10
2019-05-12T03:48:45.421Z,4.07
2019-05-12T03:51:16.371Z,4.17
2019-05-12T03:53:48.633Z,4.50
2019-05-12T03:56:20.854Z,4.50
2019-05-12T03:58:54.096Z,4.13
2019-05-12T04:01:26.502Z,4.67
2019-05-12T04:03:58.723Z,4.40
2019-05-12T04:06:30.962Z,4.97
2019-05-12T04:09:04.753Z,4.73
2019-05-12T04:11:36.999Z,4.50
2019-05-12T04:14:09.251Z,4.40
2019-05-12T04:16:44.876Z,4.53
2019-05-12T04:19:15.941Z,4.67
2019-05-12T04:21:48.192Z,4.50
2019-05-12T04:24:20.435Z,4.80
2019-05-12T04:26:55.152Z,4.97
2019-05-12T04:29:27.679Z,4.60
2019-05-12T04:31:59.939Z,4.27
2019-05-12T04:34:34.304Z,4.33
2019-05-12T04:37:07.257Z,4.50
2019-05-12T04:39:39.461Z,4.20
2019-05-12T04:42:14.680Z,4.07
2019-05-12T04:44:45.609Z,3.80
2019-05-12T04:47:17.909Z,3.60
2019-05-12T04:49:50.174Z,3.60
2019-05-12T04:52:24.848Z,3.93
2019-05-12T04:54:56.311Z,3.70
2019-05-12T04:57:28.350Z,3.30
2019-05-12T05:00:00.567Z,3.63
2019-05-12T05:02:36.275Z,3.60
2019-05-12T05:05:06.841Z,3.67
2019-05-12T05:07:39.109Z,3.60
2019-05-12T05:10:14.277Z,3.53
2019-05-12T05:12:45.275Z,3.30
2019-05-12T05:15:17.492Z,3.17
2019-05-12T05:17:49.740Z,2.60
2019-05-12T05:20:23.964Z,3.03
2019-05-12T05:22:56.336Z,2.80
2019-05-12T05:25:28.535Z,2.20
2019-05-12T05:28:00.731Z,3.20
2019-05-12T05:30:34.091Z,2.43
2019-05-12T05:33:10.256Z,2.70
2019-05-12T05:35:43.597Z,2.30
2019-05-12T05:38:20.598Z,3.00
2019-05-12T05:40:50.126Z,2.50
2019-05-12T05:43:24.171Z,3.00
2019-05-12T05:46:02.499Z,3.17
2019-05-12T05:48:32.177Z,3.00
2019-05-12T05:51:08.805Z,2.60
2019-05-12T05:53:38.644Z,2.20
2019-05-12T05:56:10.879Z,1.93
2019-05-12T05:58:47.007Z,2.40
2019-05-12T06:01:17.094Z,2.70
2019-05-12T06:03:49.291Z,2.30
2019-05-12T06:06:23.650Z,2.40
2019-05-12T06:08:55.452Z,2.50
2019-05-12T06:11:28.558Z,2.63
2019-05-12T06:14:03.256Z,2.50
2019-05-12T06:16:35.043Z,2.00
2019-05-12T06:19:07.312Z,2.40
2019-05-12T06:21:39.525Z,2.20
2019-05-12T06:24:15.539Z,2.00
2019-05-12T06:26:56.617Z,2.20
2019-05-12T06:29:21.846Z,2.17
2019-05-12T06:31:54.311Z,2.40
2019-05-12T06:34:26.660Z,2.30
2019-05-12T06:37:03.060Z,2.20
2019-05-12T06:39:34.356Z,2.30
2019-05-12T06:42:12.347Z,2.40
2019-05-12T06:44:43.758Z,2.30
2019-05-12T06:47:15.753Z,1.73
2019-05-12T06:49:48.872Z,1.73
2019-05-12T06:52:23.714Z,1.63
2019-05-12T06:54:56.822Z,1.60
2019-05-12T06:57:29.193Z,1.50
2019-05-12T07:00:01.487Z,1.30
2019-05-12T07:02:37.124Z,1.27
2019-05-12T07:05:07.942Z,1.60
2019-05-12T07:07:44.301Z,1.00
2019-05-12T07:10:35.479Z,1.60
2019-05-12T07:12:58.972Z,1.77
2019-05-12T07:15:23.851Z,0.90
2019-05-12T07:17:56.025Z,1.20
2019-05-12T07:20:29.299Z,1.10
2019-05-12T07:23:04.030Z,1.30
2019-05-12T07:25:36.967Z,1.30
2019-05-12T07:28:09.359Z,1.30
2019-05-12T07:30:43.894Z,0.80
2019-05-12T07:33:15.654Z,0.70
2019-05-12T07:35:48.006Z,0.87
2019-05-12T07:38:21.669Z,1.10
2019-05-12T07:40:54.193Z,0.77
2019-05-12T07:43:26.389Z,0.47
2019-05-12T07:46:02.524Z,0.50
2019-05-12T07:48:33.437Z,0.40
2019-05-12T07:51:06.280Z,0.60
2019-05-12T07:53:38.490Z,0.70
2019-05-12T07:56:10.708Z,0.70
2019-05-12T07:58:47.471Z,0.83
2019-05-12T08:01:17.154Z,0.50
2019-05-12T08:03:51.025Z,0.60
2019-05-12T08:06:24.415Z,0.63
2019-05-12T08:08:59.033Z,0.90
2019-05-12T08:11:36.664Z,0.90
2019-05-12T08:14:04.717Z,1.03
2019-05-12T08:16:37.229Z,1.07
2019-05-12T08:19:14.994Z,1.10
2019-05-12T08:21:49.116Z,0.90
2019-05-12T08:24:18.857Z,0.80
2019-05-12T08:27:01.455Z,0.90
2019-05-12T08:29:25.073Z,0.80
2019-05-12T08:31:57.346Z,0.83
2019-05-12T08:34:29.630Z,1.10
2019-05-12T08:37:01.813Z,1.00
2019-05-12T08:39:34.464Z,0.97
2019-05-12T08:42:06.689Z,0.83
2019-05-12T08:44:40.717Z,0.97
2019-05-12T08:47:15.223Z,0.80
2019-05-12T08:49:55.151Z,0.90
2019-05-12T08:52:23.540Z,0.80
2019-05-12T08:54:55.875Z,1.00
2019-05-12T08:57:34.835Z,1.10
2019-05-12T09:00:03.426Z,0.90
2019-05-12T09:02:39.854Z,0.80
2019-05-12T09:05:10.340Z,1.00
2019-05-12T09:07:43.565Z,1.37
2019-05-12T09:10:15.986Z,1.27
2019-05-12T09:12:48.259Z,0.93
2019-05-12T09:15:20.538Z,0.80
2019-05-12T09:17:56.836Z,1.07
2019-05-12T09:20:27.743Z,0.70
2019-05-12T09:23:00.858Z,0.80
2019-05-12T09:25:34.338Z,0.90
2019-05-12T09:28:09.172Z,0.70
2019-05-12T09:30:47.520Z,0.90
2019-05-12T09:33:15.403Z,0.90
2019-05-12T09:35:47.640Z,1.00
2019-05-12T09:38:21.620Z,0.97
2019-05-12T09:41:00.723Z,1.00
2019-05-12T09:43:28.438Z,0.77
2019-05-12T09:46:00.787Z,0.87
2019-05-12T09:48:33.804Z,0.63
2019-05-12T09:51:08.023Z,0.70
2019-05-12T09:53:50.583Z,0.80
2019-05-12T09:56:16.595Z,0.70
2019-05-12T09:58:59.018Z,0.57
2019-05-12T10:01:24.210Z,1.00
2019-05-12T10:03:56.541Z,0.80
2019-05-12T10:06:29.553Z,1.37
2019-05-12T10:09:03.460Z,1.70
2019-05-12T10:11:36.024Z,0.90
2019-05-12T10:14:10.767Z,0.60
2019-05-12T10:16:45.572Z,0.80
2019-05-12T10:19:17.451Z,0.77
2019-05-12T10:21:55.180Z,0.80
2019-05-12T10:24:23.744Z,0.80
2019-05-12T10:26:56.016Z,0.83
2019-05-12T10:29:30.692Z,1.10
2019-05-12T10:32:03.985Z,1.10
2019-05-12T10:34:40.268Z,1.00
2019-05-12T10:37:10.244Z,1.30
2019-05-12T10:39:42.501Z,1.00
2019-05-12T10:42:14.943Z,1.50
2019-05-12T10:44:47.031Z,0.90
2019-05-12T10:47:19.524Z,1.30
2019-05-12T10:49:53.790Z,1.10
2019-05-12T10:52:29.338Z,1.27
2019-05-12T10:54:59.688Z,1.50
2019-05-12T10:57:33.364Z,1.30
2019-05-12T11:00:05.807Z,1.30
2019-05-12T11:02:38.043Z,0.97
2019-05-12T11:05:20.678Z,1.07
2019-05-12T11:07:45.374Z,1.00
2019-05-12T11:10:20.146Z,1.10
2019-05-12T11:12:51.538Z,1.00
2019-05-12T11:15:24.504Z,1.03
2019-05-12T11:17:57.256Z,1.13
2019-05-12T11:20:30.173Z,1.00
2019-05-12T11:23:04.799Z,1.23
2019-05-12T11:25:37.050Z,0.90
2019-05-12T11:28:09.461Z,0.80
2019-05-12T11:30:43.670Z,1.40
2019-05-12T11:33:15.765Z,1.03
2019-05-12T11:35:48.230Z,1.10
2019-05-12T11:38:20.433Z,1.30
2019-05-12T11:40:53.794Z,1.40
2019-05-12T11:43:26.256Z,1.30
2019-05-12T11:45:58.872Z,1.30
2019-05-12T11:48:31.132Z,0.97
2019-05-12T11:51:03.963Z,1.10
2019-05-12T11:53:36.502Z,1.47
2019-05-12T11:56:09.695Z,1.10
2019-05-12T11:58:47.367Z,1.50
2019-05-12T12:01:16.006Z,0.77
2019-05-12T12:03:48.283Z,0.93
2019-05-12T12:06:20.589Z,1.20
2019-05-12T12:08:53.678Z,1.47
2019-05-12T12:11:28.114Z,0.97
2019-05-12T12:14:05.567Z,1.20
2019-05-12T12:16:34.185Z,0.80
2019-05-12T12:19:06.375Z,0.90
2019-05-12T12:21:40.379Z,0.77
2019-05-12T12:24:13.576Z,0.90
2019-05-12T12:26:46.791Z,1.00
2019-05-12T12:29:19.800Z,0.90
2019-05-12T12:31:52.636Z,0.88
2019-05-12T12:34:30.154Z,0.80
2019-05-12T12:37:00.001Z,0.80
2019-05-12T12:39:32.793Z,0.98
2019-05-12T12:42:05.619Z,0.70
2019-05-12T12:44:38.481Z,0.82
2019-05-12T12:47:11.282Z,1.15
2019-05-12T12:49:47.672Z,0.72
2019-05-12T12:52:18.643Z,0.85
2019-05-12T12:54:51.443Z,0.80
2019-05-12T12:57:24.226Z,0.82
2019-05-12T12:59:57.049Z,0.62
2019-05-12T13:02:29.867Z,1.02
2019-05-12T13:05:02.662Z,0.90
2019-05-12T13:07:35.469Z,0.75
2019-05-12T13:10:09.780Z,0.90
2019-05-12T13:12:43.817Z,0.90
2019-05-12T13:15:16.833Z,0.62
2019-05-12T13:17:49.611Z,0.70
2019-05-12T13:20:23.849Z,1.00
2019-05-12T13:22:56.807Z,0.80
2019-05-12T13:25:29.697Z,0.70
2019-05-12T13:28:10.369Z,1.25
2019-05-12T13:30:46.378Z,1.00
2019-05-12T13:33:14.751Z,0.90
2019-05-12T13:35:50.131Z,0.90
2019-05-12T13:38:20.608Z,0.70
2019-05-12T13:40:54.170Z,0.80
2019-05-12T13:43:28.197Z,0.72
2019-05-12T13:46:01.010Z,1.12
2019-05-12T13:48:33.811Z,0.60
2019-05-12T13:51:12.396Z,1.35
2019-05-12T13:53:46.350Z,0.70
2019-05-12T13:56:19.187Z,0.82
2019-05-12T13:58:50.199Z,0.90
2019-05-12T14:01:24.861Z,0.98
2019-05-12T14:03:58.343Z,0.70
2019-05-12T14:06:32.960Z,0.70
2019-05-12T14:09:04.532Z,0.83
2019-05-12T14:11:36.882Z,0.87
2019-05-12T14:14:15.166Z,0.70
2019-05-12T14:16:52.434Z,0.90
2019-05-12T14:19:19.006Z,0.80
2019-05-12T14:21:54.274Z,1.20
2019-05-12T14:24:26.394Z,0.87
2019-05-12T14:26:58.670Z,1.00
2019-05-12T14:29:30.914Z,0.87
2019-05-12T14:32:05.427Z,0.80
2019-05-12T14:34:37.136Z,0.80
2019-05-12T14:37:10.479Z,1.00
2019-05-12T14:39:48.098Z,1.57
2019-05-12T14:42:17.307Z,1.23
2019-05-12T14:44:49.927Z,1.70
2019-05-12T14:47:25.745Z,2.27
2019-05-12T14:49:57.304Z,1.40
2019-05-12T14:52:29.373Z,0.97
2019-05-12T14:55:03.431Z,0.77
2019-05-12T14:57:39.226Z,0.80
2019-05-12T15:00:11.130Z,0.70
2019-05-12T15:02:43.942Z,0.80
2019-05-12T15:05:16.315Z,0.90
2019-05-12T15:07:56.765Z,1.20
2019-05-12T15:10:23.434Z,0.87
2019-05-12T15:12:56.025Z,0.87
2019-05-12T15:15:28.268Z,0.67
2019-05-12T15:18:03.547Z,0.83
2019-05-12T15:20:34.489Z,1.40
2019-05-12T15:23:06.975Z,0.93
2019-05-12T15:25:39.191Z,0.80
2019-05-12T15:28:11.505Z,0.70
2019-05-12T15:30:43.792Z,0.80
2019-05-12T15:33:17.109Z,0.60
2019-05-12T15:35:49.304Z,0.90
2019-05-12T15:38:23.767Z,1.07
2019-05-12T15:40:56.582Z,1.30
2019-05-12T15:43:28.795Z,0.80
2019-05-12T15:46:01.367Z,1.50
2019-05-12T15:48:34.311Z,0.87
2019-05-12T15:51:09.305Z,0.80
2019-05-12T15:53:44.401Z,0.90
2019-05-12T15:56:22.616Z,0.90
2019-05-12T15:58:49.497Z,0.80
2019-05-12T16:01:24.020Z,1.07
2019-05-12T16:03:55.687Z,1.30
2019-05-12T16:06:27.928Z,1.37
2019-05-12T16:09:00.064Z,2.20
2019-05-12T16:11:33.385Z,1.67
2019-05-12T16:14:05.688Z,1.73
2019-05-12T16:16:42.444Z,1.17
2019-05-12T16:19:14.682Z,1.10
2019-05-12T16:21:46.655Z,1.00
2019-05-12T16:24:18.938Z,1.50
2019-05-12T16:26:52.146Z,1.60
2019-05-12T16:29:25.394Z,1.27
2019-05-12T16:31:57.604Z,0.70
2019-05-12T16:34:29.869Z,1.13
2019-05-12T16:37:04.076Z,1.57
2019-05-12T16:39:43.820Z,0.80
2019-05-12T16:42:10.788Z,1.07
2019-05-12T16:44:44.029Z,0.80
2019-05-12T16:47:18.769Z,0.70
2019-05-12T16:49:50.389Z,0.80
2019-05-12T16:52:24.402Z,0.80
2019-05-12T16:54:56.624Z,0.80
2019-05-12T16:57:28.816Z,0.93
2019-05-12T17:00:03.635Z,0.90
2019-05-12T17:02:41.826Z,0.90
2019-05-12T17:05:17.670Z,0.77
2019-05-12T17:07:44.312Z,0.77
2019-05-12T17:10:17.011Z,0.70
2019-05-12T17:12:49.312Z,1.00
2019-05-12T17:15:23.540Z,0.90
2019-05-12T17:18:01.147Z,0.80
2019-05-12T17:20:29.547Z,0.77
2019-05-12T17:23:03.399Z,0.70
2019-05-12T17:25:36.136Z,1.00
2019-05-12T17:28:08.483Z,0.57
2019-05-12T17:30:40.774Z,0.77
2019-05-12T17:33:22.220Z,0.83
2019-05-12T17:35:47.144Z,0.93
2019-05-12T17:38:20.255Z,1.00
2019-05-12T17:40:58.809Z,0.83
2019-05-12T17:43:27.222Z,0.80
2019-05-12T17:46:01.313Z,0.87
2019-05-12T17:48:37.368Z,1.00
2019-05-12T17:51:07.335Z,0.70
2019-05-12T17:53:40.464Z,0.73
2019-05-12T17:56:14.051Z,0.70
2019-05-12T17:58:47.538Z,0.83
2019-05-12T18:01:23.015Z,0.77
2019-05-12T18:03:54.032Z,0.73
2019-05-12T18:06:30.772Z,0.80
2019-05-12T18:09:00.224Z,0.50
2019-05-12T18:11:33.983Z,0.70
2019-05-12T18:14:07.192Z,2.43
2019-05-12T18:16:43.181Z,0.80
2019-05-12T18:19:15.432Z,0.73
2019-05-12T18:21:48.828Z,1.10
2019-05-12T18:24:21.055Z,0.57
2019-05-12T18:26:58.886Z,0.83
2019-05-12T18:29:27.340Z,0.83
2019-05-12T18:31:59.593Z,0.87
2019-05-12T18:34:33.998Z,0.67
2019-05-12T18:37:05.899Z,1.00
2019-05-12T18:39:38.122Z,1.23
2019-05-12T18:42:10.409Z,0.80
2019-05-12T18:44:43.897Z,0.70
2019-05-12T18:47:22.296Z,0.70
2019-05-12T18:49:50.428Z,0.60
2019-05-12T18:52:23.587Z,0.80
2019-05-12T18:54:57.798Z,0.70
2019-05-12T18:57:30.213Z,0.70
2019-05-12T19:00:04.903Z,0.80
2019-05-12T19:02:36.516Z,0.90
2019-05-12T19:05:12.974Z,0.87
2019-05-12T19:07:43.906Z,0.80
2019-05-12T19:10:16.426Z,0.90
2019-05-12T19:12:51.563Z,0.90
2019-05-12T19:15:22.716Z,1.10
2019-05-12T19:17:55.273Z,0.80
2019-05-12T19:20:31.299Z,0.77
2019-05-12T19:23:03.601Z,1.10
2019-05-12T19:25:40.264Z,0.93
2019-05-12T19:28:10.477Z,1.20
2019-05-12T19:30:43.798Z,1.40
2019-05-12T19:33:16.250Z,1.10
2019-05-12T19:35:50.515Z,1.40
2019-05-12T19:38:23.939Z,1.10
2019-05-12T19:41:00.771Z,1.10
2019-05-12T19:43:30.547Z,1.10
2019-05-12T19:46:04.679Z,1.20
2019-05-12T19:48:46.506Z,1.10
2019-05-12T19:51:22.966Z,1.30
2019-05-12T19:53:44.886Z,0.90
2019-05-12T19:56:19.007Z,0.80
2019-05-12T19:58:53.599Z,0.93
2019-05-12T20:01:32.221Z,0.90
2019-05-12T20:04:00.057Z,1.07
2019-05-12T20:06:33.602Z,1.10
2019-05-12T20:09:10.194Z,0.77
2019-05-12T20:11:39.889Z,1.10
2019-05-12T20:14:16.626Z,1.10
2019-05-12T20:16:46.240Z,1.43
2019-05-12T20:19:19.956Z,1.10
2019-05-12T20:21:54.329Z,1.03
2019-05-12T20:24:26.422Z,1.27
2019-05-12T20:26:58.693Z,1.10
2019-05-12T20:29:35.246Z,1.33
2019-05-12T20:32:04.955Z,1.30
2019-05-12T20:34:48.523Z,1.40
2019-05-12T20:37:14.345Z,1.20
2019-05-12T20:39:45.468Z,1.07
2019-05-12T20:42:17.706Z,1.27
2019-05-12T20:44:51.302Z,1.50
2019-05-12T20:47:24.080Z,1.63
2019-05-12T20:49:56.709Z,1.37
2019-05-12T20:52:28.945Z,1.30
2019-05-12T20:55:03.507Z,1.73
2019-05-12T20:57:40.080Z,1.10
2019-05-12T21:00:09.128Z,1.30
2019-05-12T21:02:43.998Z,1.20
2019-05-12T21:05:19.916Z,1.57
2019-05-12T21:07:49.673Z,1.70
2019-05-12T21:10:26.422Z,1.50
2019-05-12T21:12:55.865Z,1.00
2019-05-12T21:15:40.666Z,1.60
2019-05-12T21:18:06.851Z,1.40
2019-05-12T21:20:36.003Z,1.53
2019-05-12T21:23:08.288Z,1.60
2019-05-12T21:25:43.889Z,2.17
2019-05-12T21:28:14.956Z,1.37
2019-05-12T21:30:48.261Z,1.43
2019-05-12T21:33:23.877Z,1.40
2019-05-12T21:35:55.149Z,1.50
2019-05-12T21:38:29.612Z,1.50
2019-05-12T21:41:02.147Z,1.60
2019-05-12T21:43:35.236Z,1.53
2019-05-12T21:46:12.256Z,1.50
2019-05-12T21:48:41.421Z,1.50
2019-05-12T21:51:18.494Z,1.60
2019-05-12T21:53:50.553Z,1.80
2019-05-12T21:56:24.425Z,1.40
2019-05-12T21:58:58.167Z,1.73
2019-05-12T22:01:35.129Z,1.70
2019-05-12T22:04:05.383Z,1.50
2019-05-12T22:06:37.843Z,1.70
2019-05-12T22:09:10.372Z,1.53
2019-05-12T22:11:50.633Z,1.73
2019-05-12T22:14:16.646Z,1.70
2019-05-12T22:16:48.861Z,1.67
2019-05-12T22:19:21.087Z,1.87
2019-05-12T22:21:53.743Z,1.80
2019-05-12T22:24:33.888Z,1.87
2019-05-12T22:27:02.763Z,2.00
2019-05-12T22:29:35.038Z,2.20
2019-05-12T22:32:07.349Z,2.07
2019-05-12T22:34:41.965Z,1.97
2019-05-12T22:37:13.711Z,2.07
2019-05-12T22:39:46.013Z,2.33
2019-05-12T22:42:21.673Z,2.17
2019-05-12T22:45:00.875Z,2.17
2019-05-12T22:47:26.070Z,1.93
2019-05-12T22:49:58.272Z,2.10
2019-05-12T22:52:30.523Z,2.20
2019-05-12T22:55:03.608Z,2.53
2019-05-12T22:57:40.121Z,2.40
2019-05-12T23:00:13.503Z,1.90
2019-05-12T23:02:45.519Z,2.30
2019-05-12T23:05:20.549Z,2.40
2019-05-12T23:07:51.718Z,2.40
2019-05-12T23:10:23.980Z,2.37
2019-05-12T23:13:01.614Z,2.13
2019-05-12T23:15:33.286Z,2.43
2019-05-12T23:18:05.013Z,3.00
2019-05-12T23:20:37.220Z,2.40
2019-05-12T23:23:15.417Z,2.40
2019-05-12T23:25:44.138Z,2.10
2019-05-12T23:28:16.495Z,2.23
2019-05-12T23:30:50.130Z,2.17
2019-05-12T23:33:25.404Z,2.13
2019-05-12T23:35:56.341Z,2.10
2019-05-12T23:38:30.833Z,2.30
2019-05-12T23:41:04.197Z,2.37
2019-05-12T23:43:36.573Z,2.33
2019-05-12T23:46:08.825Z,2.53
2019-05-12T23:48:41.096Z,2.67
2019-05-12T23:51:14.312Z,2.10
2019-05-12T23:53:46.896Z,2.67
2019-05-12T23:56:19.128Z,2.47
2019-05-12T23:58:53.719Z,2.40
